Time;durP1;ratioP1;P1;durP2;ratioP2;P2;SDS_P1;SDS_P2;PMS_P1;PMS_P2;Temp;Humidity;BMP_temperature;BMP_pressure;BME280_temperature;BME280_humidity;BME280_pressure;Samples;Min_cycle;Max_cycle;Signal;HPM_P1;HPM_P2
2023/07/09 00:02:20;;;;;;;5.97;3.42;;;22.50;96.20;;;;;;4989230;28;20181;-75
2023/07/09 00:04:46;;;;;;;5.22;3.25;;;22.60;96.10;;;;;;4986598;28;20207;-74
2023/07/09 00:07:32;;;;;;;12.55;3.45;;;22.60;96.10;;;;;;4981857;28;20771;-74
2023/07/09 00:09:58;;;;;;;4.88;3.17;;;22.60;96.30;;;;;;4984011;28;20775;-74
2023/07/09 00:12:25;;;;;;;4.43;3.30;;;22.60;96.40;;;;;;4987155;28;20209;-74
2023/07/09 00:14:51;;;;;;;4.38;2.70;;;22.60;96.60;;;;;;4984533;28;20319;-74
2023/07/09 00:17:29;;;;;;;3.25;2.85;;;22.50;96.70;;;;;;4979635;28;20208;-75
2023/07/09 00:19:54;;;;;;;5.47;3.00;;;22.40;97.00;;;;;;4983820;28;20225;-74
2023/07/09 00:22:20;;;;;;;5.90;2.97;;;22.40;97.10;;;;;;4983828;28;20209;-74
2023/07/09 00:24:50;;;;;;;3.83;2.75;;;22.40;97.40;;;;;;4985619;28;20583;-74
2023/07/09 00:27:18;;;;;;;5.18;2.95;;;22.40;97.50;;;;;;4982943;28;20209;-74
2023/07/09 00:29:44;;;;;;;4.68;3.20;;;22.30;97.70;;;;;;4982024;28;20293;-74
2023/07/09 00:32:20;;;;;;;5.07;2.97;;;22.30;98.10;;;;;;5001220;28;20261;-75
2023/07/09 00:34:49;;;;;;;5.07;2.75;;;22.20;98.20;;;;;;5004320;28;20296;-74
2023/07/09 00:37:22;;;;;;;5.55;2.60;;;22.20;98.60;;;;;;4985569;28;20633;-75
2023/07/09 00:39:48;;;;;;;5.68;3.08;;;22.20;98.80;;;;;;4987058;28;20206;-74
2023/07/09 00:42:17;;;;;;;3.88;2.88;;;22.20;98.90;;;;;;4987741;28;20202;-75
2023/07/09 00:44:53;;;;;;;5.00;2.78;;;22.20;99.10;;;;;;4986607;28;20229;-73
2023/07/09 00:47:25;;;;;;;5.15;2.78;;;22.20;99.20;;;;;;4986371;28;20247;-75
2023/07/09 00:50:01;;;;;;;5.00;3.05;;;22.20;99.40;;;;;;4984140;28;20183;-74
2023/07/09 00:52:38;;;;;;;6.78;3.15;;;22.20;99.50;;;;;;4982388;28;20228;-74
2023/07/09 00:55:14;;;;;;;6.45;3.15;;;22.20;99.70;;;;;;4983716;28;20737;-73
2023/07/09 00:57:41;;;;;;;4.95;3.03;;;22.20;99.70;;;;;;4978795;28;20209;-73
2023/07/09 01:00:14;;;;;;;5.95;3.42;;;22.10;99.90;;;;;;4982987;28;20205;-74
2023/07/09 01:02:45;;;;;;;5.10;2.88;;;22.20;99.90;;;;;;4985240;28;20211;-74
2023/07/09 01:05:12;;;;;;;3.78;2.63;;;22.20;99.90;;;;;;4982260;28;20186;-74
2023/07/09 01:07:38;;;;;;;6.82;3.25;;;22.20;99.90;;;;;;4984836;28;20712;-73
2023/07/09 01:10:04;;;;;;;5.55;2.95;;;22.20;99.90;;;;;;4988132;28;20210;-73
2023/07/09 01:12:30;;;;;;;5.25;2.80;;;22.10;99.90;;;;;;4988014;28;20696;-73
2023/07/09 01:14:58;;;;;;;3.78;2.75;;;22.10;99.90;;;;;;4976030;28;20226;-73
2023/07/09 01:17:27;;;;;;;6.70;3.33;;;22.10;99.90;;;;;;4978702;28;20693;-74
2023/07/09 01:19:54;;;;;;;3.90;2.75;;;22.10;99.90;;;;;;4986657;28;20989;-73
2023/07/09 01:22:22;;;;;;;8.05;3.30;;;22.20;99.90;;;;;;4987739;28;20210;-74
2023/07/09 01:24:49;;;;;;;3.95;2.90;;;22.20;99.90;;;;;;4982761;28;20634;-72
2023/07/09 01:27:17;;;;;;;5.63;3.33;;;22.20;99.90;;;;;;4985000;28;20300;-73
2023/07/09 01:29:48;;;;;;;6.53;3.30;;;22.20;99.90;;;;;;4982359;28;20348;-73
2023/07/09 01:32:17;;;;;;;4.43;2.67;;;22.20;99.90;;;;;;4983053;28;20209;-74
2023/07/09 01:34:42;;;;;;;3.90;2.78;;;22.20;99.90;;;;;;4981266;28;20695;-74
2023/07/09 01:37:08;;;;;;;3.83;3.10;;;22.30;99.90;;;;;;4982256;28;20214;-74
2023/07/09 01:39:35;;;;;;;4.10;3.03;;;22.20;99.90;;;;;;4980282;28;20222;-74
2023/07/09 01:42:01;;;;;;;5.90;3.15;;;22.20;99.90;;;;;;4986098;28;20218;-73
2023/07/09 01:44:29;;;;;;;7.05;3.00;;;22.20;99.90;;;;;;4983739;28;20644;-74
2023/07/09 01:46:54;;;;;;;4.75;3.55;;;22.20;99.90;;;;;;4987528;28;20320;-74
2023/07/09 01:49:20;;;;;;;4.28;2.97;;;22.20;99.90;;;;;;4987793;28;20283;-74
2023/07/09 01:51:49;;;;;;;5.15;3.15;;;22.10;99.90;;;;;;4987360;28;20217;-74
2023/07/09 01:54:16;;;;;;;5.68;3.10;;;22.10;99.90;;;;;;4996053;28;20214;-73
2023/07/09 01:56:42;;;;;;;3.25;2.80;;;22.10;99.90;;;;;;4979076;28;20312;-74
2023/07/09 01:59:10;;;;;;;4.20;3.00;;;22.10;99.90;;;;;;4984992;28;20282;-74
2023/07/09 02:01:37;;;;;;;6.28;3.60;;;22.10;99.90;;;;;;4987361;28;20209;-74
2023/07/09 02:04:03;;;;;;;5.10;2.53;;;22.10;99.90;;;;;;4977018;28;20301;-73
2023/07/09 02:06:31;;;;;;;5.10;2.95;;;22.00;99.90;;;;;;4984099;28;20217;-74
2023/07/09 02:08:58;;;;;;;4.60;3.33;;;22.00;99.90;;;;;;4980955;28;20675;-74
2023/07/09 02:11:24;;;;;;;6.43;3.35;;;22.00;99.90;;;;;;4983382;28;20178;-74
2023/07/09 02:13:49;;;;;;;6.95;3.35;;;22.00;99.90;;;;;;4984547;28;20617;-74
2023/07/09 02:16:15;;;;;;;4.30;3.03;;;22.00;99.90;;;;;;4981869;28;20209;-73
2023/07/09 02:18:41;;;;;;;5.22;3.30;;;22.00;99.90;;;;;;4978746;28;20233;-74
2023/07/09 02:21:06;;;;;;;6.43;3.03;;;22.00;99.90;;;;;;4985851;28;20222;-73
2023/07/09 02:23:32;;;;;;;4.20;2.78;;;22.10;99.90;;;;;;4975863;28;20728;-73
2023/07/09 02:25:57;;;;;;;5.45;2.72;;;22.00;99.90;;;;;;4987772;28;20201;-73
2023/07/09 02:28:23;;;;;;;3.85;3.03;;;22.00;99.90;;;;;;4987005;28;20205;-73
2023/07/09 02:30:49;;;;;;;5.43;4.07;;;21.90;99.90;;;;;;4983045;28;20735;-74
2023/07/09 02:33:14;;;;;;;4.82;3.15;;;21.90;99.90;;;;;;4976795;28;20203;-73
2023/07/09 02:35:40;;;;;;;5.45;3.75;;;21.80;99.90;;;;;;4980470;28;20221;-74
2023/07/09 02:38:05;;;;;;;4.07;2.78;;;21.80;99.90;;;;;;4975703;28;20940;-73
2023/07/09 02:40:31;;;;;;;5.43;3.85;;;21.80;99.90;;;;;;4980110;28;20210;-74
2023/07/09 02:42:56;;;;;;;4.50;2.95;;;21.80;99.90;;;;;;4977446;28;20700;-73
2023/07/09 02:45:22;;;;;;;5.03;3.70;;;21.70;99.90;;;;;;4979496;28;20218;-74
2023/07/09 02:47:48;;;;;;;5.00;3.03;;;21.70;99.90;;;;;;4978558;28;20240;-74
2023/07/09 02:50:14;;;;;;;4.50;3.38;;;21.70;99.90;;;;;;4982415;28;20571;-74
2023/07/09 02:52:41;;;;;;;5.85;3.10;;;21.70;99.90;;;;;;4983010;28;20652;-73
2023/07/09 02:55:08;;;;;;;4.63;2.72;;;21.70;99.90;;;;;;4981663;28;20230;-74
2023/07/09 02:57:33;;;;;;;7.65;3.05;;;21.60;99.90;;;;;;4982457;28;20202;-74
2023/07/09 02:59:59;;;;;;;6.63;3.13;;;21.70;99.90;;;;;;4980005;28;20217;-73
2023/07/09 03:02:24;;;;;;;4.47;3.22;;;21.80;99.90;;;;;;4981376;28;20179;-75
2023/07/09 03:04:50;;;;;;;4.30;3.38;;;21.80;99.90;;;;;;4983929;28;20182;-73
2023/07/09 03:07:16;;;;;;;4.65;3.28;;;21.80;99.90;;;;;;5003459;23;20235;-71
2023/07/09 03:09:41;;;;;;;9.70;4.10;;;21.70;99.90;;;;;;5020032;28;20208;-72
2023/07/09 03:12:08;;;;;;;5.22;3.00;;;21.70;99.90;;;;;;5026723;28;20216;-72
2023/07/09 03:14:33;;;;;;;12.13;7.20;;;21.80;99.90;;;;;;5018455;28;20258;-71
2023/07/09 03:16:59;;;;;;;6.22;3.63;;;21.90;99.90;;;;;;5025693;28;20736;-71
2023/07/09 03:19:24;;;;;;;8.13;4.60;;;22.00;99.90;;;;;;5010619;28;20214;-72
2023/07/09 03:21:50;;;;;;;5.90;3.80;;;21.90;99.90;;;;;;5017036;28;20209;-71
2023/07/09 03:24:18;;;;;;;5.65;3.72;;;22.00;99.90;;;;;;5017499;28;20649;-72
2023/07/09 03:26:47;;;;;;;4.68;3.53;;;22.10;99.90;;;;;;5013311;28;20231;-71
2023/07/09 03:29:13;;;;;;;6.25;4.00;;;22.10;99.90;;;;;;5015216;28;20185;-73
2023/07/09 03:31:38;;;;;;;4.70;3.78;;;22.10;99.90;;;;;;5017558;28;20174;-73
2023/07/09 03:34:04;;;;;;;9.48;4.93;;;22.10;99.90;;;;;;5021286;28;20252;-73
2023/07/09 03:36:30;;;;;;;6.40;3.97;;;22.60;99.90;;;;;;5014730;28;20333;-73
2023/07/09 03:38:55;;;;;;;5.97;4.10;;;23.10;99.90;;;;;;5014829;28;20597;-73
2023/07/09 03:41:21;;;;;;;6.15;4.00;;;23.90;99.90;;;;;;5012086;28;20696;-73
2023/07/09 03:43:49;;;;;;;6.50;3.58;;;24.30;99.90;;;;;;5017659;28;20193;-73
2023/07/09 03:46:15;;;;;;;5.30;3.58;;;24.60;99.90;;;;;;5016857;28;20227;-73
2023/07/09 03:48:41;;;;;;;5.25;3.50;;;25.30;99.90;;;;;;5011816;28;20216;-73
2023/07/09 03:51:06;;;;;;;4.32;3.60;;;25.70;99.90;;;;;;5020200;28;20217;-72
2023/07/09 03:54:12;;;;;;;4.90;4.35;;;25.50;99.90;;;;;;5014300;28;20228;-72
2023/07/09 03:56:38;;;;;;;7.90;5.13;;;25.40;99.90;;;;;;5002803;28;20406;-72
2023/07/09 03:59:04;;;;;;;6.38;5.70;;;25.50;99.90;;;;;;5014803;28;20766;-72
2023/07/09 04:01:30;;;;;;;5.85;4.20;;;25.30;99.90;;;;;;5013328;28;20208;-72
2023/07/09 04:03:56;;;;;;;7.78;4.57;;;25.30;99.90;;;;;;5013945;28;20302;-72
2023/07/09 04:06:22;;;;;;;5.22;4.13;;;26.00;99.90;;;;;;5012353;28;20292;-72
2023/07/09 04:08:47;;;;;;;5.32;4.78;;;27.20;99.10;;;;;;5020195;28;20610;-72
2023/07/09 04:11:13;;;;;;;7.88;5.18;;;28.00;97.60;;;;;;5018890;28;20638;-72
2023/07/09 04:13:38;;;;;;;4.72;3.72;;;28.50;95.90;;;;;;5010592;28;20174;-72
2023/07/09 04:16:04;;;;;;;5.10;3.90;;;29.00;94.40;;;;;;5015479;28;20228;-71
2023/07/09 04:18:30;;;;;;;5.43;3.90;;;29.10;93.40;;;;;;5008710;28;20202;-71
2023/07/09 04:20:55;;;;;;;5.97;4.00;;;29.70;92.60;;;;;;5014745;28;20285;-72
2023/07/09 04:23:21;;;;;;;4.35;3.30;;;29.60;91.80;;;;;;5009517;28;20180;-73
2023/07/09 04:25:47;;;;;;;4.93;3.60;;;30.30;91.60;;;;;;5013894;28;20185;-72
2023/07/09 04:28:13;;;;;;;3.95;3.03;;;30.60;90.50;;;;;;5011388;28;20220;-73
2023/07/09 04:30:38;;;;;;;4.80;3.60;;;30.60;90.20;;;;;;5016112;28;20218;-73
2023/07/09 04:33:05;;;;;;;7.20;3.70;;;30.80;89.70;;;;;;5012630;28;20692;-71
2023/07/09 04:35:30;;;;;;;5.70;4.75;;;31.50;87.40;;;;;;5017233;28;20734;-72
2023/07/09 04:37:56;;;;;;;6.80;3.70;;;31.40;86.20;;;;;;5020245;28;20196;-72
2023/07/09 04:40:21;;;;;;;4.32;3.70;;;32.10;85.60;;;;;;5016417;28;20729;-72
2023/07/09 04:42:47;;;;;;;3.83;3.30;;;32.30;84.30;;;;;;5020023;28;20211;-72
2023/07/09 04:45:13;;;;;;;3.95;3.25;;;32.40;82.60;;;;;;5015335;28;20380;-72
2023/07/09 04:47:39;;;;;;;4.85;3.88;;;32.60;81.70;;;;;;5019302;28;20215;-71
2023/07/09 04:50:07;;;;;;;5.47;3.97;;;33.40;80.70;;;;;;5014381;28;20188;-72
2023/07/09 04:52:33;;;;;;;4.40;3.50;;;33.00;78.90;;;;;;5007122;28;20296;-72
2023/07/09 04:54:59;;;;;;;5.65;3.88;;;32.30;79.80;;;;;;5014199;28;20223;-73
2023/07/09 04:57:26;;;;;;;4.03;3.58;;;32.90;80.10;;;;;;5006462;28;20676;-73
2023/07/09 04:59:52;;;;;;;5.00;4.03;;;33.10;79.20;;;;;;5014882;28;20227;-73
2023/07/09 05:02:18;;;;;;;5.30;4.32;;;32.90;78.60;;;;;;5010810;28;20181;-73
2023/07/09 05:04:43;;;;;;;5.07;3.88;;;33.20;78.40;;;;;;5014150;28;20226;-73
2023/07/09 05:07:09;;;;;;;4.38;3.67;;;33.10;78.50;;;;;;5013471;28;20268;-72
2023/07/09 05:09:35;;;;;;;4.80;3.58;;;33.80;77.40;;;;;;5014148;28;20602;-73
2023/07/09 05:12:01;;;;;;;6.93;4.70;;;34.30;76.00;;;;;;5016705;28;20220;-73
2023/07/09 05:14:29;;;;;;;4.97;3.65;;;33.90;74.10;;;;;;5017283;28;20218;-71
2023/07/09 05:16:55;;;;;;;6.25;3.88;;;33.90;74.70;;;;;;5036067;28;20203;-73
2023/07/09 05:19:20;;;;;;;3.75;3.38;;;34.60;74.20;;;;;;5021233;28;20212;-73
2023/07/09 05:21:46;;;;;;;4.05;3.50;;;34.40;73.60;;;;;;5021192;28;20269;-73
2023/07/09 05:24:12;;;;;;;5.45;3.78;;;34.40;73.60;;;;;;5015249;28;20209;-73
2023/07/09 05:26:37;;;;;;;5.63;3.40;;;34.30;71.90;;;;;;5009788;28;20261;-73
2023/07/09 05:29:05;;;;;;;4.65;3.60;;;34.30;73.30;;;;;;5017354;28;20210;-73
2023/07/09 05:31:32;;;;;;;4.55;3.35;;;34.30;73.00;;;;;;5004981;28;20250;-73
2023/07/09 05:33:58;;;;;;;4.00;3.13;;;34.50;70.30;;;;;;5018490;28;20602;-74
2023/07/09 05:36:25;;;;;;;5.25;3.58;;;35.20;70.20;;;;;;5009060;28;20216;-75
2023/07/09 05:38:51;;;;;;;4.68;3.58;;;34.10;70.40;;;;;;5012673;28;20218;-74
2023/07/09 05:41:16;;;;;;;3.90;3.42;;;33.30;71.70;;;;;;5010700;28;20564;-73
2023/07/09 05:43:44;;;;;;;4.15;3.20;;;33.80;72.30;;;;;;5017329;28;20173;-72
2023/07/09 05:46:10;;;;;;;5.03;3.40;;;33.60;70.90;;;;;;5013468;28;20325;-74
2023/07/09 05:48:35;;;;;;;4.72;3.75;;;33.30;72.30;;;;;;5013740;28;20311;-75
2023/07/09 05:51:01;;;;;;;6.65;5.10;;;34.50;71.80;;;;;;5015768;28;20701;-74
2023/07/09 05:53:27;;;;;;;5.72;4.13;;;34.70;69.80;;;;;;5013130;28;20188;-72
2023/07/09 05:55:56;;;;;;;6.75;4.40;;;34.90;69.80;;;;;;5014715;28;20825;-74
2023/07/09 05:58:22;;;;;;;4.90;3.40;;;35.30;69.00;;;;;;5015375;28;20216;-74
2023/07/09 06:00:57;;;;;;;3.50;3.17;;;35.30;69.50;;;;;;5017197;28;20214;-74
2023/07/09 06:03:24;;;;;;;6.93;5.03;;;35.20;69.50;;;;;;5010806;28;20207;-74
2023/07/09 06:05:50;;;;;;;4.68;4.07;;;35.30;69.30;;;;;;5008833;28;20213;-73
2023/07/09 06:08:17;;;;;;;5.72;4.97;;;35.10;69.70;;;;;;5010812;28;20287;-73
2023/07/09 06:11:00;;;;;;;7.82;3.50;;;35.20;69.30;;;;;;5007846;28;20181;-74
2023/07/09 06:13:27;;;;;;;3.67;3.30;;;35.40;69.30;;;;;;5008550;28;20876;-71
2023/07/09 06:15:54;;;;;;;4.90;3.65;;;33.80;69.60;;;;;;5013089;28;20318;-74
2023/07/09 06:18:20;;;;;;;4.80;3.70;;;34.40;70.90;;;;;;5010817;28;20215;-74
2023/07/09 06:20:51;;;;;;;6.05;4.70;;;34.80;68.70;;;;;;5008814;28;20743;-74
2023/07/09 06:23:17;;;;;;;5.43;3.67;;;35.20;67.70;;;;;;5018846;28;20191;-75
2023/07/09 06:25:47;;;;;;;5.72;4.25;;;34.90;69.10;;;;;;5022500;28;20302;-73
2023/07/09 06:28:16;;;;;;;5.13;3.58;;;34.30;69.10;;;;;;5020488;28;20215;-73
2023/07/09 06:30:42;;;;;;;3.92;3.42;;;34.90;68.80;;;;;;5023284;28;20237;-74
2023/07/09 06:33:07;;;;;;;4.05;3.55;;;35.60;68.20;;;;;;5021668;28;20714;-73
2023/07/09 06:35:33;;;;;;;3.80;3.35;;;36.10;66.30;;;;;;5020970;28;20694;-74
2023/07/09 06:37:59;;;;;;;5.90;3.63;;;36.50;66.00;;;;;;5022634;28;20219;-74
2023/07/09 06:40:24;;;;;;;3.38;3.03;;;36.00;66.00;;;;;;5020604;28;20203;-73
2023/07/09 06:42:50;;;;;;;4.65;4.05;;;34.90;65.10;;;;;;5027927;28;20204;-73
2023/07/09 06:45:16;;;;;;;3.58;3.28;;;34.50;66.90;;;;;;5019501;28;20273;-73
2023/07/09 06:47:42;;;;;;;4.75;3.58;;;35.90;67.00;;;;;;5013229;28;20216;-74
2023/07/09 06:50:08;;;;;;;4.05;3.45;;;36.70;65.00;;;;;;5019524;28;20183;-74
2023/07/09 06:52:33;;;;;;;3.95;3.53;;;35.90;63.90;;;;;;5020025;28;20216;-74
2023/07/09 06:54:59;;;;;;;3.42;3.05;;;35.10;65.20;;;;;;5019025;28;20246;-74
2023/07/09 06:57:25;;;;;;;4.28;3.30;;;35.80;65.40;;;;;;5015327;28;20248;-74
2023/07/09 06:59:50;;;;;;;8.23;3.95;;;37.50;64.20;;;;;;5022354;28;20216;-74
2023/07/09 07:02:16;;;;;;;4.30;3.67;;;37.10;62.20;;;;;;5020854;28;20180;-74
2023/07/09 07:04:41;;;;;;;5.50;4.50;;;36.30;62.50;;;;;;5020811;28;20227;-73
2023/07/09 07:07:07;;;;;;;4.68;3.95;;;36.60;64.10;;;;;;5021326;28;20222;-74
2023/07/09 07:09:33;;;;;;;4.15;3.80;;;36.60;63.20;;;;;;5020647;28;20216;-73
2023/07/09 07:11:58;;;;;;;4.22;3.42;;;37.70;62.70;;;;;;5021471;28;20694;-74
2023/07/09 07:14:24;;;;;;;3.97;3.00;;;37.50;62.30;;;;;;5019737;28;20200;-74
2023/07/09 07:16:50;;;;;;;4.57;3.95;;;38.60;61.60;;;;;;5019397;28;20184;-73
2023/07/09 07:19:16;;;;;;;6.50;3.95;;;39.00;60.20;;;;;;5018543;28;20240;-74
2023/07/09 07:21:41;;;;;;;3.85;3.53;;;37.80;61.70;;;;;;5019190;28;20680;-74
2023/07/09 07:24:07;;;;;;;4.30;3.45;;;37.40;62.40;;;;;;5022991;28;20987;-72
2023/07/09 07:26:33;;;;;;;5.45;3.40;;;38.10;61.90;;;;;;5018380;28;20296;-74
2023/07/09 07:28:58;;;;;;;4.47;3.10;;;38.00;60.80;;;;;;5022060;28;20228;-74
2023/07/09 07:31:24;;;;;;;5.03;3.92;;;39.20;60.70;;;;;;5020086;28;20242;-74
2023/07/09 07:33:51;;;;;;;4.05;3.75;;;38.90;60.10;;;;;;5018553;28;20219;-74
2023/07/09 07:36:16;;;;;;;4.78;3.70;;;39.20;60.50;;;;;;5018895;28;20261;-74
2023/07/09 07:38:42;;;;;;;4.50;4.10;;;38.50;59.50;;;;;;5020156;28;20208;-74
2023/07/09 07:41:08;;;;;;;4.20;3.80;;;38.90;59.20;;;;;;5020764;28;20180;-75
2023/07/09 07:43:33;;;;;;;4.32;3.92;;;38.30;59.50;;;;;;5018608;28;20203;-74
2023/07/09 07:45:59;;;;;;;3.78;3.47;;;38.40;60.50;;;;;;5020750;28;20212;-75
2023/07/09 07:48:24;;;;;;;4.15;3.75;;;39.40;60.60;;;;;;5018464;28;20709;-74
2023/07/09 07:50:50;;;;;;;4.25;3.72;;;40.10;59.50;;;;;;5020173;28;20207;-75
2023/07/09 07:53:16;;;;;;;4.03;3.63;;;40.60;59.70;;;;;;5019053;28;20191;-75
2023/07/09 07:55:42;;;;;;;4.35;3.95;;;40.90;58.80;;;;;;5017665;28;20216;-74
2023/07/09 07:58:12;;;;;;;4.70;3.88;;;41.30;57.00;;;;;;5021102;28;20207;-74
2023/07/09 08:00:39;;;;;;;4.45;3.85;;;41.30;57.40;;;;;;5019140;28;20324;-75
2023/07/09 08:03:04;;;;;;;6.57;4.05;;;41.10;57.10;;;;;;5021412;28;20208;-75
2023/07/09 08:05:30;;;;;;;5.35;3.45;;;40.30;57.60;;;;;;5018096;28;20742;-74
2023/07/09 08:07:56;;;;;;;4.68;4.15;;;39.50;58.50;;;;;;5020131;28;20228;-74
2023/07/09 08:10:22;;;;;;;5.22;3.58;;;39.50;58.20;;;;;;5018087;28;20203;-75
2023/07/09 08:12:48;;;;;;;4.85;4.13;;;40.40;58.60;;;;;;5018090;28;20586;-74
2023/07/09 08:15:14;;;;;;;5.78;3.58;;;38.80;58.10;;;;;;5021858;28;20219;-74
2023/07/09 08:17:39;;;;;;;4.50;4.10;;;39.50;59.60;;;;;;5022397;28;20227;-75
2023/07/09 08:20:05;;;;;;;5.35;4.10;;;40.50;58.70;;;;;;5014682;28;20191;-74
2023/07/09 08:22:31;;;;;;;7.07;4.15;;;40.10;57.80;;;;;;5019772;28;20746;-74
2023/07/09 08:24:57;;;;;;;5.38;4.13;;;39.60;58.40;;;;;;5020380;28;20215;-74
2023/07/09 08:27:22;;;;;;;3.75;3.30;;;39.70;58.20;;;;;;5013556;28;20669;-74
2023/07/09 08:29:48;;;;;;;4.18;3.88;;;39.90;58.40;;;;;;5020758;28;20590;-74
2023/07/09 08:32:14;;;;;;;6.03;3.78;;;39.40;57.90;;;;;;5018144;28;20649;-75
2023/07/09 08:34:40;;;;;;;4.32;3.92;;;40.00;57.70;;;;;;5017641;28;20234;-75
2023/07/09 08:37:08;;;;;;;5.03;3.78;;;40.20;57.00;;;;;;5020636;28;20259;-75
2023/07/09 08:39:34;;;;;;;4.18;3.70;;;40.50;57.10;;;;;;5019275;28;20211;-74
2023/07/09 08:42:08;;;;;;;4.63;4.15;;;40.00;57.20;;;;;;5017360;28;20209;-74
2023/07/09 08:45:04;;;;;;;4.47;4.07;;;40.20;56.20;;;;;;5015229;28;20246;-74
2023/07/09 08:48:08;;;;;;;3.83;3.53;;;39.70;57.10;;;;;;5017767;28;21172;-72
2023/07/09 08:50:53;;;;;;;4.35;3.95;;;39.40;57.50;;;;;;4994901;28;20240;-73
2023/07/09 08:53:47;;;;;;;4.00;3.45;;;38.30;57.20;;;;;;4996454;28;20201;-73
2023/07/09 08:56:14;;;;;;;6.05;4.40;;;38.80;58.20;;;;;;5014215;28;20576;-74
2023/07/09 08:58:42;;;;;;;4.90;4.10;;;38.60;58.70;;;;;;5017180;28;20587;-73
2023/07/09 09:01:18;;;;;;;3.95;3.58;;;38.50;59.20;;;;;;5021162;28;20203;-72
2023/07/09 09:03:48;;;;;;;5.57;4.07;;;38.90;59.20;;;;;;5022100;28;20247;-74
2023/07/09 09:06:21;;;;;;;4.28;3.88;;;39.60;59.30;;;;;;5018990;28;20603;-74
2023/07/09 09:09:04;;;;;;;6.57;4.50;;;38.50;59.40;;;;;;5034375;23;20220;-74
2023/07/09 09:11:46;;;;;;;5.47;3.70;;;39.20;58.80;;;;;;5014599;28;20223;-73
2023/07/09 09:14:15;;;;;;;4.10;3.80;;;38.90;58.20;;;;;;5014522;28;20273;-74
2023/07/09 09:16:44;;;;;;;5.18;3.63;;;38.60;58.50;;;;;;5023054;28;20187;-74
2023/07/09 09:19:36;;;;;;;4.57;4.07;;;38.50;58.50;;;;;;5014229;28;20208;-74
2023/07/09 09:22:08;;;;;;;4.40;3.65;;;38.70;58.00;;;;;;5023441;28;20200;-74
2023/07/09 09:24:43;;;;;;;5.90;4.05;;;38.90;57.70;;;;;;5016036;28;20315;-73
2023/07/09 09:27:09;;;;;;;4.35;3.25;;;37.60;57.60;;;;;;5014045;28;20258;-73
2023/07/09 09:29:34;;;;;;;4.00;3.58;;;37.40;59.20;;;;;;5017814;28;20216;-73
2023/07/09 09:32:23;;;;;;;3.95;3.40;;;36.60;60.00;;;;;;5015768;28;20604;-73
2023/07/09 09:34:49;;;;;;;8.80;5.15;;;35.80;59.60;;;;;;5024072;28;20212;-74
2023/07/09 09:37:31;;;;;;;5.05;4.13;;;36.60;60.60;;;;;;5018175;28;20207;-74
2023/07/09 09:39:59;;;;;;;5.28;3.58;;;36.50;60.30;;;;;;5015813;28;20204;-74
2023/07/09 09:42:25;;;;;;;5.03;3.53;;;35.70;59.80;;;;;;5027726;28;20203;-74
2023/07/09 09:44:55;;;;;;;8.45;3.72;;;36.20;60.60;;;;;;5027757;28;20592;-73
2023/07/09 09:47:25;;;;;;;3.85;3.35;;;35.90;60.00;;;;;;5011977;28;20248;-74
2023/07/09 09:49:52;;;;;;;7.30;4.13;;;35.20;60.20;;;;;;5016750;28;20261;-73
2023/07/09 09:52:19;;;;;;;4.00;3.60;;;35.40;61.60;;;;;;5032769;28;20255;-73
2023/07/09 09:54:52;;;;;;;4.47;3.60;;;35.30;61.00;;;;;;5011716;28;20230;-73
2023/07/09 09:57:22;;;;;;;6.03;3.97;;;35.40;61.10;;;;;;5014350;28;20209;-74
2023/07/09 09:59:47;;;;;;;4.20;3.80;;;35.70;61.00;;;;;;5020592;28;20694;-73
2023/07/09 10:02:19;;;;;;;4.53;4.13;;;35.90;60.20;;;;;;5018724;28;20185;-73
2023/07/09 10:04:45;;;;;;;7.15;4.43;;;36.20;60.00;;;;;;5021127;28;20207;-73
2023/07/09 10:07:22;;;;;;;4.85;3.85;;;36.00;59.40;;;;;;5017456;28;20213;-73
2023/07/09 10:09:54;;;;;;;5.68;3.70;;;35.40;60.10;;;;;;5017392;28;20223;-73
2023/07/09 10:12:42;;;;;;;5.30;3.50;;;34.90;61.10;;;;;;5019729;28;20298;-73
2023/07/09 10:15:31;;;;;;;4.80;3.63;;;35.30;61.10;;;;;;5019606;28;20271;-75
2023/07/09 10:18:35;;;;;;;4.82;4.13;;;35.40;60.90;;;;;;5012270;28;20701;-74
2023/07/09 10:21:08;;;;;;;5.03;4.28;;;34.40;62.10;;;;;;5014155;28;20644;-75
2023/07/09 10:24:05;;;;;;;4.18;3.72;;;34.40;62.00;;;;;;5017140;28;20213;-74
2023/07/09 10:26:41;;;;;;;5.13;3.80;;;34.40;62.80;;;;;;5020851;28;20224;-73
2023/07/09 10:29:31;;;;;;;4.07;3.67;;;33.70;63.30;;;;;;5021264;28;20224;-74
2023/07/09 10:32:29;;;;;;;4.03;3.63;;;33.00;64.00;;;;;;5017568;28;20271;-74
2023/07/09 10:35:07;;;;;;;4.68;3.70;;;33.70;65.40;;;;;;5017573;28;20212;-75
2023/07/09 10:37:41;;;;;;;5.10;3.55;;;33.40;63.20;;;;;;5019243;28;20722;-74
2023/07/09 10:40:11;;;;;;;4.40;3.80;;;33.20;64.20;;;;;;5019761;28;20219;-74
2023/07/09 10:42:48;;;;;;;4.55;4.03;;;33.80;63.30;;;;;;5018910;28;20204;-73
2023/07/09 10:45:22;;;;;;;5.55;4.00;;;34.10;63.50;;;;;;5016585;28;20267;-74
2023/07/09 10:47:54;;;;;;;4.70;3.95;;;33.70;63.30;;;;;;5018333;28;20212;-73
2023/07/09 10:50:37;;;;;;;5.10;3.70;;;33.70;63.60;;;;;;5020465;28;20194;-76
2023/07/09 10:53:15;;;;;;;5.55;4.22;;;33.80;63.40;;;;;;5024521;28;20176;-75
2023/07/09 10:55:56;;;;;;;5.35;4.47;;;33.70;63.40;;;;;;5019877;28;20223;-74
2023/07/09 10:58:30;;;;;;;8.02;5.28;;;33.80;64.60;;;;;;5028194;28;20709;-75
2023/07/09 11:00:57;;;;;;;6.03;4.07;;;33.40;63.90;;;;;;5015494;28;20706;-75
2023/07/09 11:03:38;;;;;;;4.88;4.38;;;33.30;64.40;;;;;;5020756;28;20286;-75
2023/07/09 11:06:08;;;;;;;7.18;5.93;;;33.40;64.40;;;;;;5026608;28;20922;-74
2023/07/09 11:08:38;;;;;;;8.98;6.40;;;33.10;64.30;;;;;;5019358;28;20229;-75
2023/07/09 11:11:10;;;;;;;5.18;4.43;;;33.10;64.50;;;;;;5013837;28;20195;-74
2023/07/09 11:13:42;;;;;;;5.20;4.30;;;33.10;65.00;;;;;;5023284;28;20212;-75
2023/07/09 11:16:14;;;;;;;6.22;4.28;;;33.10;65.10;;;;;;5023373;28;20208;-75
2023/07/09 11:18:40;;;;;;;8.05;5.88;;;33.00;64.50;;;;;;5024984;28;20215;-75
2023/07/09 11:21:17;;;;;;;4.40;4.00;;;32.70;65.50;;;;;;5019441;28;20687;-75
2023/07/09 11:23:49;;;;;;;7.32;5.72;;;32.80;66.10;;;;;;5020583;28;20303;-74
2023/07/09 11:26:23;;;;;;;6.50;4.68;;;33.00;66.10;;;;;;5015935;28;20169;-77
2023/07/09 11:28:56;;;;;;;6.55;4.68;;;32.80;66.90;;;;;;5026341;28;20196;-74
2023/07/09 11:31:25;;;;;;;5.03;4.40;;;32.80;66.80;;;;;;5027240;28;20207;-74
2023/07/09 11:34:19;;;;;;;4.30;3.90;;;32.90;66.20;;;;;;5021062;28;20321;-74
2023/07/09 11:36:50;;;;;;;5.65;4.00;;;33.10;66.00;;;;;;5015483;28;20223;-74
2023/07/09 11:39:27;;;;;;;8.57;4.60;;;32.60;65.90;;;;;;5019453;28;20694;-75
2023/07/09 11:41:53;;;;;;;4.68;3.83;;;32.50;66.50;;;;;;5011546;28;20224;-74
2023/07/09 11:44:22;;;;;;;8.27;4.20;;;32.50;65.30;;;;;;5018702;28;20195;-75
2023/07/09 11:47:12;;;;;;;6.30;4.28;;;32.80;65.50;;;;;;5020546;28;20211;-75
2023/07/09 11:49:50;;;;;;;5.13;3.80;;;32.60;65.10;;;;;;5016956;28;20351;-73
2023/07/09 11:52:20;;;;;;;7.40;4.15;;;33.10;65.10;;;;;;5037943;28;20215;-73
2023/07/09 11:54:46;;;;;;;5.10;4.25;;;33.10;65.50;;;;;;5017496;28;20244;-74
2023/07/09 11:57:16;;;;;;;5.32;4.13;;;33.20;65.50;;;;;;5019243;28;20685;-74
2023/07/09 11:59:42;;;;;;;5.53;4.95;;;33.30;65.30;;;;;;5020736;28;20212;-74
2023/07/09 12:02:21;;;;;;;6.82;4.30;;;33.70;66.20;;;;;;5019490;28;20177;-74
2023/07/09 12:04:51;;;;;;;5.22;4.28;;;33.80;66.00;;;;;;5018062;28;20212;-74
2023/07/09 12:07:18;;;;;;;4.82;4.43;;;33.60;65.90;;;;;;5017545;28;20252;-74
2023/07/09 12:09:51;;;;;;;5.72;4.50;;;33.40;66.60;;;;;;5017950;28;20277;-74
2023/07/09 12:12:25;;;;;;;8.40;4.78;;;33.20;66.30;;;;;;5018544;28;20256;-74
2023/07/09 12:14:51;;;;;;;5.15;4.38;;;33.00;66.30;;;;;;5025101;28;20323;-73
2023/07/09 12:17:18;;;;;;;5.85;4.85;;;32.90;66.00;;;;;;5016631;28;20181;-74
2023/07/09 12:19:44;;;;;;;6.70;4.70;;;32.70;66.10;;;;;;5013511;28;20251;-74
2023/07/09 12:22:19;;;;;;;5.78;4.85;;;32.60;66.40;;;;;;5020535;28;20236;-75
2023/07/09 12:24:46;;;;;;;5.55;4.88;;;32.50;66.00;;;;;;5015036;28;20710;-74
2023/07/09 12:27:26;;;;;;;5.38;4.80;;;32.70;66.00;;;;;;5020096;28;20704;-75
2023/07/09 12:29:55;;;;;;;6.65;4.20;;;33.00;66.80;;;;;;5017354;28;20212;-74
2023/07/09 12:32:23;;;;;;;6.30;4.63;;;33.10;66.40;;;;;;5014675;28;20206;-75
2023/07/09 12:34:53;;;;;;;6.78;4.20;;;33.20;66.20;;;;;;5018699;28;20219;-74
2023/07/09 12:37:22;;;;;;;6.22;4.88;;;33.30;65.80;;;;;;5035784;28;20784;-75
2023/07/09 12:39:51;;;;;;;6.50;5.10;;;32.90;65.80;;;;;;5027761;28;20761;-74
2023/07/09 12:42:31;;;;;;;6.15;4.35;;;32.70;66.30;;;;;;5020828;28;20203;-75
2023/07/09 12:44:57;;;;;;;8.10;4.72;;;32.30;66.80;;;;;;5015931;28;20689;-74
2023/07/09 12:47:25;;;;;;;4.88;4.43;;;32.40;67.60;;;;;;5014231;28;20177;-75
2023/07/09 12:49:51;;;;;;;5.18;4.75;;;32.20;67.80;;;;;;5021044;28;20200;-74
2023/07/09 12:52:24;;;;;;;6.70;4.85;;;32.40;67.80;;;;;;5017445;28;20200;-74
2023/07/09 12:55:20;;;;;;;7.93;5.50;;;32.30;67.20;;;;;;5011155;28;20310;-75
2023/07/09 12:57:46;;;;;;;5.43;4.93;;;32.20;67.20;;;;;;5011447;28;20223;-74
2023/07/09 13:00:17;;;;;;;6.70;4.82;;;32.10;68.60;;;;;;5020260;28;20214;-74